Time;durP1;ratioP1;P1;durP2;ratioP2;P2;SDS_P1;SDS_P2;PMS_P1;PMS_P2;Temp;Humidity;BMP_temperature;BMP_pressure;BME280_temperature;BME280_humidity;BME280_pressure;Samples;Min_cycle;Max_cycle;Signal;HPM_P1;HPM_P2
2023/10/26 00:02:14;;;;;;;14.50;12.10;;;10.40;99.90;;;;;;5044327;28;20440;-68
2023/10/26 00:04:40;;;;;;;14.45;12.25;;;10.40;99.90;;;;;;5052878;28;20417;-68
2023/10/26 00:07:08;;;;;;;14.70;12.40;;;10.40;99.90;;;;;;5044957;28;20436;-67
2023/10/26 00:09:35;;;;;;;15.68;12.18;;;10.40;99.90;;;;;;5056548;28;21102;-67
2023/10/26 00:12:02;;;;;;;14.70;12.05;;;10.30;99.90;;;;;;5048596;28;20438;-67
2023/10/26 00:14:29;;;;;;;15.10;11.93;;;10.40;99.90;;;;;;5057824;28;20475;-67
2023/10/26 00:16:55;;;;;;;12.90;10.00;;;10.40;99.90;;;;;;5064080;28;20440;-67
2023/10/26 00:19:22;;;;;;;13.90;10.77;;;10.40;99.90;;;;;;5047289;28;20917;-68
2023/10/26 00:21:49;;;;;;;11.20;8.77;;;10.30;99.90;;;;;;5049348;28;20435;-67
2023/10/26 00:24:17;;;;;;;11.40;8.87;;;10.40;99.90;;;;;;5036329;28;20907;-66
2023/10/26 00:26:43;;;;;;;10.02;8.38;;;10.30;99.90;;;;;;5060053;28;20419;-67
2023/10/26 00:29:10;;;;;;;12.05;8.80;;;10.30;99.90;;;;;;5055335;28;20894;-66
2023/10/26 00:31:37;;;;;;;11.02;8.73;;;10.30;99.90;;;;;;5053248;28;20427;-67
2023/10/26 00:34:04;;;;;;;9.93;8.10;;;10.30;99.90;;;;;;5054440;28;20415;-66
2023/10/26 00:36:31;;;;;;;10.20;7.67;;;10.30;99.90;;;;;;5046859;28;20938;-67
2023/10/26 00:38:57;;;;;;;11.30;9.40;;;10.30;99.90;;;;;;5061190;28;20440;-67
2023/10/26 00:41:26;;;;;;;14.30;10.53;;;10.30;99.90;;;;;;5042852;28;20950;-67
2023/10/26 00:43:52;;;;;;;14.57;11.32;;;10.30;99.90;;;;;;5047200;28;20957;-67
2023/10/26 00:46:19;;;;;;;15.43;11.50;;;10.30;99.90;;;;;;5051060;28;20429;-67
2023/10/26 00:48:46;;;;;;;15.20;11.50;;;10.30;99.90;;;;;;5061720;28;20753;-67
2023/10/26 00:51:12;;;;;;;14.65;11.00;;;10.20;99.90;;;;;;5051441;28;20448;-66
2023/10/26 00:53:41;;;;;;;14.60;11.38;;;10.20;99.90;;;;;;5059199;28;20420;-67
2023/10/26 00:56:08;;;;;;;17.10;12.10;;;10.20;99.90;;;;;;5049892;28;20558;-67
2023/10/26 00:58:36;;;;;;;18.17;13.10;;;10.20;99.90;;;;;;5063507;28;20423;-65
2023/10/26 01:01:03;;;;;;;18.33;13.90;;;10.10;99.90;;;;;;5038672;28;20426;-68
2023/10/26 01:03:31;;;;;;;16.75;13.07;;;10.20;99.90;;;;;;5059903;28;20920;-69
2023/10/26 01:05:58;;;;;;;15.43;12.20;;;10.10;99.90;;;;;;5054126;28;20498;-66
2023/10/26 01:08:25;;;;;;;16.08;12.32;;;10.10;99.90;;;;;;5044011;28;20436;-66
2023/10/26 01:10:52;;;;;;;16.77;13.02;;;10.10;99.90;;;;;;5045047;28;20503;-67
2023/10/26 01:13:19;;;;;;;17.43;12.83;;;10.10;99.90;;;;;;5043920;28;20780;-68
2023/10/26 01:15:47;;;;;;;16.83;13.27;;;10.10;99.90;;;;;;5041505;28;20872;-67
2023/10/26 01:18:14;;;;;;;17.65;13.13;;;10.10;99.90;;;;;;5060236;28;20901;-67
2023/10/26 01:20:44;;;;;;;17.40;13.40;;;10.10;99.90;;;;;;5048163;28;20429;-67
2023/10/26 01:23:12;;;;;;;17.83;14.43;;;10.10;99.90;;;;;;5048941;28;20431;-68
2023/10/26 01:25:38;;;;;;;20.58;14.98;;;10.10;99.90;;;;;;5048462;28;20433;-67
2023/10/26 01:28:06;;;;;;;18.13;14.82;;;10.10;99.90;;;;;;5041533;28;20411;-67
2023/10/26 01:30:33;;;;;;;21.40;16.95;;;10.10;99.90;;;;;;5037833;28;20504;-67
2023/10/26 01:33:00;;;;;;;21.13;17.10;;;10.00;99.90;;;;;;5060067;28;20428;-67
2023/10/26 01:35:27;;;;;;;22.90;17.85;;;10.10;99.90;;;;;;5046974;28;20430;-66
2023/10/26 01:37:53;;;;;;;23.02;18.15;;;10.00;99.90;;;;;;5066274;28;21005;-67
2023/10/26 01:40:22;;;;;;;25.98;19.27;;;10.00;99.90;;;;;;5040588;28;20435;-67
2023/10/26 01:42:48;;;;;;;25.90;18.88;;;10.00;99.90;;;;;;5058640;28;20770;-69
2023/10/26 01:45:15;;;;;;;25.08;19.73;;;10.00;99.90;;;;;;5050444;28;20429;-66
2023/10/26 01:47:42;;;;;;;27.08;19.38;;;10.00;99.90;;;;;;5051979;28;20779;-67
2023/10/26 01:50:09;;;;;;;27.80;20.83;;;10.00;99.90;;;;;;5054316;28;20431;-67
2023/10/26 01:52:36;;;;;;;28.73;20.70;;;10.00;99.90;;;;;;5038471;28;20998;-68
2023/10/26 01:55:03;;;;;;;26.38;20.63;;;10.00;99.90;;;;;;5041409;28;20437;-67
2023/10/26 01:57:31;;;;;;;26.60;20.70;;;9.90;99.90;;;;;;5033772;28;20437;-66
2023/10/26 01:59:58;;;;;;;28.67;21.17;;;9.90;99.90;;;;;;5053996;28;20436;-67
2023/10/26 02:02:24;;;;;;;25.95;20.88;;;9.90;99.90;;;;;;5046853;28;20799;-68
2023/10/26 02:04:51;;;;;;;28.10;20.88;;;9.90;99.90;;;;;;5058294;28;20436;-67
2023/10/26 02:07:18;;;;;;;28.73;20.90;;;9.90;99.90;;;;;;5053272;28;20435;-67
2023/10/26 02:09:44;;;;;;;27.85;21.02;;;9.90;99.90;;;;;;5055575;28;20437;-67
2023/10/26 02:12:11;;;;;;;26.40;20.98;;;9.90;99.90;;;;;;5056445;28;20423;-67
2023/10/26 02:14:39;;;;;;;29.90;21.90;;;9.90;99.90;;;;;;5048482;28;20433;-66
2023/10/26 02:17:06;;;;;;;28.83;21.88;;;9.90;99.90;;;;;;5035342;28;20442;-66
2023/10/26 02:19:32;;;;;;;29.90;21.85;;;9.90;99.90;;;;;;5051906;28;21053;-69
2023/10/26 02:21:59;;;;;;;29.10;21.80;;;9.90;99.90;;;;;;5042969;28;20439;-67
2023/10/26 02:24:26;;;;;;;29.17;21.33;;;9.90;99.90;;;;;;5044779;28;20440;-67
2023/10/26 02:26:53;;;;;;;30.13;21.50;;;9.90;99.90;;;;;;5057486;28;20441;-67
2023/10/26 02:29:20;;;;;;;28.65;21.23;;;9.90;99.90;;;;;;5053939;28;20428;-67
2023/10/26 02:31:48;;;;;;;29.05;20.85;;;9.90;99.90;;;;;;5048723;28;20479;-68
2023/10/26 02:34:15;;;;;;;30.38;21.80;;;9.90;99.90;;;;;;5045756;28;20434;-68
2023/10/26 02:36:41;;;;;;;27.38;20.95;;;10.00;99.90;;;;;;5061361;28;20411;-67
2023/10/26 02:39:08;;;;;;;23.40;19.27;;;10.00;99.90;;;;;;5048606;28;20436;-67
2023/10/26 02:41:35;;;;;;;26.42;19.90;;;9.90;99.90;;;;;;5036904;28;20426;-68
2023/10/26 02:44:02;;;;;;;24.77;18.88;;;9.90;99.90;;;;;;5046679;28;20408;-68
2023/10/26 02:46:28;;;;;;;26.98;19.70;;;9.90;99.90;;;;;;5049819;28;20796;-68
2023/10/26 02:48:57;;;;;;;25.55;19.90;;;10.00;99.90;;;;;;5040532;28;20429;-67
2023/10/26 02:51:24;;;;;;;25.85;20.20;;;9.90;99.90;;;;;;5044381;28;20522;-65
2023/10/26 02:53:51;;;;;;;27.53;21.30;;;9.90;99.90;;;;;;5046656;28;20416;-67
2023/10/26 02:56:17;;;;;;;24.70;19.57;;;9.90;99.90;;;;;;5057782;28;20419;-67
2023/10/26 02:58:45;;;;;;;24.23;19.30;;;9.90;99.90;;;;;;5052898;28;20412;-67
2023/10/26 03:01:12;;;;;;;24.85;19.83;;;9.90;99.90;;;;;;5049827;28;20436;-67
2023/10/26 03:03:38;;;;;;;25.73;20.08;;;9.90;99.90;;;;;;5060532;28;20429;-66
2023/10/26 03:06:06;;;;;;;25.60;20.05;;;9.90;99.90;;;;;;5060332;28;20409;-68
2023/10/26 03:08:33;;;;;;;26.33;20.83;;;9.90;99.90;;;;;;5058729;28;20427;-68
2023/10/26 03:11:00;;;;;;;26.38;21.05;;;9.90;99.90;;;;;;5040315;28;20439;-68
2023/10/26 03:13:26;;;;;;;27.05;21.38;;;9.90;99.90;;;;;;5051790;28;20765;-68
2023/10/26 03:15:54;;;;;;;27.20;20.75;;;9.90;99.90;;;;;;5045280;28;20432;-68
2023/10/26 03:18:20;;;;;;;29.90;21.60;;;9.90;99.90;;;;;;5053834;28;20838;-67
2023/10/26 03:20:47;;;;;;;27.25;21.08;;;9.90;99.90;;;;;;5052520;28;20433;-68
2023/10/26 03:23:16;;;;;;;26.23;20.40;;;9.90;99.90;;;;;;5046806;28;20569;-68
2023/10/26 03:25:42;;;;;;;28.50;21.52;;;9.90;99.90;;;;;;5052359;28;20413;-68
2023/10/26 03:28:09;;;;;;;28.10;21.40;;;9.90;99.90;;;;;;5051397;28;20417;-67
2023/10/26 03:30:36;;;;;;;32.50;21.80;;;9.90;99.90;;;;;;5033415;28;20426;-68
2023/10/26 03:33:02;;;;;;;31.67;22.98;;;10.00;99.90;;;;;;5039962;28;20424;-67
2023/10/26 03:35:29;;;;;;;30.73;21.80;;;10.00;99.90;;;;;;5052306;28;20429;-68
2023/10/26 03:37:56;;;;;;;31.30;23.08;;;10.00;99.90;;;;;;5053747;28;20418;-67
2023/10/26 03:40:24;;;;;;;30.05;22.15;;;10.00;99.90;;;;;;5057001;28;20459;-67
2023/10/26 03:42:51;;;;;;;28.55;21.60;;;10.00;99.90;;;;;;5046979;28;20444;-69
2023/10/26 03:45:17;;;;;;;29.38;21.77;;;10.00;99.90;;;;;;5050711;28;20430;-68
2023/10/26 03:47:44;;;;;;;28.42;20.83;;;10.00;99.90;;;;;;5047427;28;20428;-68
2023/10/26 03:50:11;;;;;;;28.67;21.07;;;10.00;99.90;;;;;;5046816;28;20441;-67
2023/10/26 03:52:38;;;;;;;27.63;21.02;;;10.00;99.90;;;;;;5058089;28;20423;-68
2023/10/26 03:55:06;;;;;;;28.88;20.60;;;10.00;99.90;;;;;;5041658;28;20445;-67
2023/10/26 03:57:34;;;;;;;27.30;21.10;;;10.00;99.90;;;;;;5054114;28;20428;-68
2023/10/26 04:00:01;;;;;;;27.33;20.80;;;10.00;99.90;;;;;;5069471;22;20495;-72
2023/10/26 04:02:27;;;;;;;26.42;20.17;;;10.00;99.90;;;;;;5073196;28;20420;-71
2023/10/26 04:04:56;;;;;;;28.60;20.52;;;9.90;99.90;;;;;;5084362;28;20441;-71
2023/10/26 04:07:23;;;;;;;24.85;20.45;;;10.00;99.90;;;;;;5085264;28;20430;-71
2023/10/26 04:09:50;;;;;;;24.50;20.23;;;9.90;99.90;;;;;;5079471;28;20426;-71
2023/10/26 04:12:17;;;;;;;25.15;20.10;;;10.00;99.90;;;;;;5065246;28;20514;-71
2023/10/26 04:14:45;;;;;;;25.40;20.20;;;9.90;99.90;;;;;;5066948;28;20430;-71
2023/10/26 04:17:12;;;;;;;27.42;20.20;;;10.00;99.90;;;;;;5065977;28;20463;-72
2023/10/26 04:19:39;;;;;;;27.65;20.50;;;10.00;99.90;;;;;;5066808;28;20512;-71
2023/10/26 04:22:06;;;;;;;26.58;20.02;;;9.90;99.90;;;;;;5065236;28;20439;-72
2023/10/26 04:24:34;;;;;;;26.98;19.52;;;10.00;99.90;;;;;;5065197;28;20499;-71
2023/10/26 04:27:01;;;;;;;24.10;18.92;;;9.90;99.90;;;;;;5066878;28;20427;-71
2023/10/26 04:29:28;;;;;;;25.52;20.10;;;10.00;99.90;;;;;;5065253;28;20431;-71
2023/10/26 04:31:56;;;;;;;24.58;18.65;;;10.00;99.90;;;;;;5064599;28;20423;-71
2023/10/26 04:34:23;;;;;;;24.48;19.67;;;10.00;99.90;;;;;;5065324;28;20439;-71
2023/10/26 04:36:50;;;;;;;24.63;18.60;;;10.00;99.90;;;;;;5065029;28;20954;-73
2023/10/26 04:39:16;;;;;;;25.73;20.92;;;10.00;99.90;;;;;;5069454;28;20425;-71
2023/10/26 04:41:43;;;;;;;27.20;20.85;;;10.00;99.90;;;;;;5066251;28;20436;-71
2023/10/26 04:44:11;;;;;;;27.98;20.65;;;10.00;99.90;;;;;;5066136;28;20411;-70
2023/10/26 04:46:38;;;;;;;25.98;20.30;;;10.00;99.90;;;;;;5063719;28;20534;-73
2023/10/26 04:49:06;;;;;;;25.00;19.55;;;10.00;99.90;;;;;;5065533;28;20408;-68
2023/10/26 04:51:33;;;;;;;24.25;19.88;;;10.00;99.90;;;;;;5059705;28;20448;-71
2023/10/26 04:54:00;;;;;;;24.20;19.48;;;10.00;99.90;;;;;;5057522;28;20427;-70
2023/10/26 04:56:26;;;;;;;22.33;19.67;;;10.00;99.90;;;;;;5051293;28;20419;-71
2023/10/26 04:58:53;;;;;;;21.83;19.53;;;10.00;99.90;;;;;;5031111;28;21295;-72
2023/10/26 05:01:20;;;;;;;21.40;19.08;;;10.00;99.90;;;;;;5036028;28;20427;-68
2023/10/26 05:03:46;;;;;;;23.13;19.40;;;10.00;99.90;;;;;;5058164;28;20429;-69
2023/10/26 05:06:15;;;;;;;21.98;18.48;;;9.90;99.90;;;;;;5061199;28;20439;-70
2023/10/26 05:08:41;;;;;;;21.60;18.30;;;9.90;99.90;;;;;;5065335;28;20560;-69
2023/10/26 05:11:08;;;;;;;21.42;18.95;;;9.90;99.90;;;;;;5065714;28;20415;-70
2023/10/26 05:13:35;;;;;;;23.60;18.65;;;9.90;99.90;;;;;;5063737;28;20739;-69
2023/10/26 05:16:03;;;;;;;23.77;19.03;;;9.90;99.90;;;;;;5059081;28;20434;-69
2023/10/26 05:18:29;;;;;;;22.83;19.25;;;9.90;99.90;;;;;;5062335;28;20429;-70
2023/10/26 05:20:56;;;;;;;23.20;18.85;;;9.90;99.90;;;;;;5067374;28;20531;-69
2023/10/26 05:23:24;;;;;;;23.63;18.23;;;9.90;99.90;;;;;;5064577;28;20888;-70
2023/10/26 05:25:51;;;;;;;21.58;18.40;;;9.90;99.90;;;;;;5063278;28;20444;-72
2023/10/26 05:28:17;;;;;;;23.33;18.40;;;9.90;99.90;;;;;;5061326;28;20427;-72
2023/10/26 05:30:44;;;;;;;23.83;18.83;;;9.90;99.90;;;;;;5059141;28;20438;-72
2023/10/26 05:33:11;;;;;;;20.40;17.05;;;9.80;99.90;;;;;;5063437;28;20759;-72
2023/10/26 05:35:38;;;;;;;20.13;17.75;;;9.90;99.90;;;;;;5062400;28;20441;-73
2023/10/26 05:38:05;;;;;;;19.50;16.73;;;9.90;99.90;;;;;;5064344;28;20476;-64
2023/10/26 05:40:33;;;;;;;21.23;18.08;;;9.90;99.90;;;;;;5063115;28;20787;-63
2023/10/26 05:42:59;;;;;;;20.05;16.92;;;10.00;99.90;;;;;;5062993;28;20419;-63
2023/10/26 05:45:26;;;;;;;19.83;17.13;;;10.00;99.90;;;;;;5059939;28;20496;-71
2023/10/26 05:47:53;;;;;;;19.83;17.35;;;10.10;99.90;;;;;;5059213;28;20439;-72
2023/10/26 05:50:20;;;;;;;19.77;17.52;;;10.00;99.90;;;;;;5062149;28;20777;-71
2023/10/26 05:52:47;;;;;;;19.20;16.20;;;10.00;99.90;;;;;;5061212;28;20784;-71
2023/10/26 05:55:14;;;;;;;18.50;16.50;;;9.90;99.90;;;;;;5056863;28;20896;-70
2023/10/26 05:57:43;;;;;;;19.33;16.58;;;9.90;99.90;;;;;;5062148;28;20447;-70
2023/10/26 06:00:11;;;;;;;20.73;17.05;;;9.90;99.90;;;;;;5060010;28;20427;-70
2023/10/26 06:02:38;;;;;;;19.80;16.42;;;9.90;99.90;;;;;;5062223;28;20427;-71
2023/10/26 06:05:05;;;;;;;20.55;18.00;;;9.90;99.90;;;;;;5062436;28;20431;-71
2023/10/26 06:07:32;;;;;;;18.48;16.48;;;9.90;99.90;;;;;;5063048;28;20431;-71
2023/10/26 06:09:58;;;;;;;20.98;17.13;;;9.80;99.90;;;;;;5062751;28;21014;-71
2023/10/26 06:12:25;;;;;;;19.17;16.30;;;9.80;99.90;;;;;;5062534;28;20415;-72
2023/10/26 06:14:53;;;;;;;18.97;16.87;;;9.80;99.90;;;;;;5061567;28;20503;-71
2023/10/26 06:17:20;;;;;;;20.50;17.10;;;9.90;99.90;;;;;;5064107;28;20471;-70
2023/10/26 06:19:47;;;;;;;18.80;16.42;;;9.80;99.90;;;;;;5064800;28;20437;-71
2023/10/26 06:22:13;;;;;;;18.65;16.52;;;9.80;99.90;;;;;;5065994;28;20435;-72
2023/10/26 06:24:41;;;;;;;19.48;16.55;;;9.90;99.90;;;;;;5067564;28;20422;-71
2023/10/26 06:27:08;;;;;;;21.33;17.70;;;9.90;99.90;;;;;;5064805;28;20509;-72
2023/10/26 06:29:35;;;;;;;19.85;17.73;;;9.90;99.90;;;;;;5065492;28;20935;-71
2023/10/26 06:32:03;;;;;;;20.02;17.40;;;9.90;99.90;;;;;;5066362;28;20507;-71
2023/10/26 06:34:30;;;;;;;19.00;17.00;;;9.80;99.90;;;;;;5067337;28;20418;-72
2023/10/26 06:36:57;;;;;;;18.75;16.70;;;9.80;99.90;;;;;;5064335;28;20894;-71
2023/10/26 06:39:24;;;;;;;17.02;15.23;;;9.80;99.90;;;;;;5066745;28;20455;-71
2023/10/26 06:41:50;;;;;;;16.20;14.50;;;9.80;99.90;;;;;;5065451;28;20844;-71
2023/10/26 06:44:17;;;;;;;17.37;14.87;;;9.80;99.90;;;;;;5067184;28;20416;-70
2023/10/26 06:46:44;;;;;;;16.25;14.55;;;9.80;99.90;;;;;;5067162;28;20473;-71
2023/10/26 06:49:13;;;;;;;16.35;14.40;;;9.90;99.90;;;;;;5066645;28;20418;-71
2023/10/26 06:51:40;;;;;;;16.80;15.10;;;9.90;99.90;;;;;;5064235;28;20465;-71
2023/10/26 06:54:07;;;;;;;16.00;14.27;;;9.90;99.90;;;;;;5066589;28;20896;-71
2023/10/26 06:56:36;;;;;;;18.60;15.33;;;9.90;99.90;;;;;;5066633;28;20458;-70
2023/10/26 06:59:03;;;;;;;18.77;16.30;;;9.90;99.90;;;;;;5059750;28;20420;-71
2023/10/26 07:01:29;;;;;;;16.13;14.43;;;10.00;99.90;;;;;;5005273;28;1725700;-71
2023/10/26 07:03:56;;;;;;;16.38;14.68;;;10.00;99.90;;;;;;5067172;28;20478;-71
2023/10/26 07:06:24;;;;;;;15.93;14.30;;;10.00;99.90;;;;;;5066953;28;20431;-71
2023/10/26 07:08:51;;;;;;;16.17;14.27;;;10.00;99.90;;;;;;5067135;28;20419;-73
2023/10/26 07:11:18;;;;;;;16.75;14.38;;;10.00;99.90;;;;;;5059716;28;20424;-72
2023/10/26 07:13:45;;;;;;;18.38;16.38;;;10.00;99.90;;;;;;5060926;28;20414;-72
2023/10/26 07:16:12;;;;;;;16.65;14.95;;;10.00;99.90;;;;;;5061565;28;20435;-73
2023/10/26 07:18:39;;;;;;;17.63;15.73;;;10.00;99.90;;;;;;5061629;28;20474;-72
2023/10/26 07:21:06;;;;;;;16.60;14.90;;;10.00;99.90;;;;;;5060445;28;20505;-71
2023/10/26 07:23:34;;;;;;;17.70;15.43;;;10.00;99.90;;;;;;5060813;28;20424;-73
2023/10/26 07:26:02;;;;;;;17.52;15.73;;;10.10;99.90;;;;;;5057998;28;20483;-70
2023/10/26 07:28:29;;;;;;;18.10;16.30;;;10.10;99.90;;;;;;5065200;28;20450;-71
2023/10/26 07:30:55;;;;;;;18.88;16.88;;;10.10;99.90;;;;;;5065867;28;20909;-71
2023/10/26 07:33:23;;;;;;;17.58;15.77;;;10.20;99.90;;;;;;5066470;28;20427;-71
2023/10/26 07:35:50;;;;;;;17.58;15.77;;;10.30;99.90;;;;;;5065639;28;20431;-71
2023/10/26 07:38:17;;;;;;;16.83;15.03;;;10.30;99.90;;;;;;5067080;28;20506;-72
2023/10/26 07:40:50;;;;;;;18.02;16.23;;;10.30;99.90;;;;;;5066856;28;20415;-71
2023/10/26 07:43:17;;;;;;;18.08;16.27;;;10.40;99.90;;;;;;5065625;28;20854;-72
2023/10/26 07:45:44;;;;;;;18.20;16.40;;;10.40;99.90;;;;;;5064167;28;20428;-71
2023/10/26 07:48:11;;;;;;;18.27;16.48;;;10.40;99.90;;;;;;5066649;28;20419;-72
2023/10/26 07:50:37;;;;;;;19.15;17.25;;;10.40;99.90;;;;;;5065712;28;20443;-71
2023/10/26 07:53:05;;;;;;;17.10;15.50;;;10.40;99.90;;;;;;5064388;28;20419;-71
2023/10/26 07:55:33;;;;;;;17.77;16.07;;;10.40;99.90;;;;;;5065154;28;20435;-71
2023/10/26 07:58:02;;;;;;;18.13;16.27;;;10.40;99.90;;;;;;5066842;28;20774;-71
2023/10/26 08:00:29;;;;;;;18.30;16.50;;;10.50;99.90;;;;;;5066388;28;20480;-72
2023/10/26 08:02:56;;;;;;;18.15;16.25;;;10.50;99.90;;;;;;5065877;28;20466;-70
2023/10/26 08:05:23;;;;;;;18.45;16.65;;;10.50;99.90;;;;;;5064778;28;20435;-72
2023/10/26 08:07:50;;;;;;;19.98;17.98;;;10.50;99.90;;;;;;5063790;28;20423;-71
2023/10/26 08:10:16;;;;;;;19.25;17.35;;;10.60;99.90;;;;;;5066156;28;20408;-71
2023/10/26 08:12:43;;;;;;;20.08;18.17;;;10.60;99.90;;;;;;5065888;28;20770;-73
2023/10/26 08:15:11;;;;;;;19.10;17.20;;;10.70;99.90;;;;;;5066271;28;20412;-72
2023/10/26 08:17:38;;;;;;;18.37;16.47;;;10.70;99.90;;;;;;5064705;28;20912;-71
2023/10/26 08:20:07;;;;;;;17.80;16.00;;;10.80;99.90;;;;;;5066647;28;20407;-71
2023/10/26 08:22:34;;;;;;;17.80;16.10;;;10.90;99.90;;;;;;5064798;28;20427;-71
2023/10/26 08:25:00;;;;;;;18.23;16.35;;;10.90;99.90;;;;;;5065157;28;20805;-71
2023/10/26 08:27:27;;;;;;;19.00;17.20;;;10.90;99.90;;;;;;5066194;28;20722;-71
2023/10/26 08:29:54;;;;;;;21.85;19.65;;;10.90;99.90;;;;;;5064327;28;20407;-71
2023/10/26 08:32:22;;;;;;;21.98;19.67;;;10.90;99.90;;;;;;5065138;28;20858;-72
2023/10/26 08:34:49;;;;;;;21.13;19.13;;;11.00;99.90;;;;;;5065388;28;20420;-71
2023/10/26 08:37:17;;;;;;;18.90;17.10;;;11.00;99.90;;;;;;5065204;28;20432;-71
2023/10/26 08:39:44;;;;;;;19.27;17.38;;;11.00;99.90;;;;;;5064207;28;20438;-72
2023/10/26 08:42:11;;;;;;;17.60;16.00;;;11.10;99.90;;;;;;5064200;28;20407;-71
2023/10/26 08:44:39;;;;;;;17.90;16.20;;;11.10;99.90;;;;;;5064908;28;20422;-71
2023/10/26 08:47:07;;;;;;;19.25;17.35;;;11.20;99.90;;;;;;5056634;28;20411;-71
2023/10/26 08:49:36;;;;;;;18.50;16.70;;;11.20;99.90;;;;;;5064648;28;20458;-73
2023/10/26 08:52:04;;;;;;;19.55;17.65;;;11.30;99.90;;;;;;5060363;28;20473;-71
2023/10/26 08:54:31;;;;;;;18.63;16.83;;;11.30;99.90;;;;;;5065181;28;20838;-70
2023/10/26 08:57:06;;;;;;;18.42;16.73;;;11.50;99.90;;;;;;5065306;28;20415;-71
2023/10/26 08:59:33;;;;;;;18.20;16.40;;;11.60;99.90;;;;;;5063350;28;20885;-71
2023/10/26 09:02:00;;;;;;;18.13;16.33;;;11.80;99.90;;;;;;5061053;28;20431;-71
2023/10/26 09:04:26;;;;;;;17.50;15.87;;;11.90;99.90;;;;;;5065681;28;20871;-71
2023/10/26 09:06:54;;;;;;;18.97;17.07;;;11.90;99.90;;;;;;5063326;28;20607;-71
2023/10/26 09:09:21;;;;;;;17.58;15.95;;;12.00;99.90;;;;;;5063274;28;20447;-71
2023/10/26 09:11:49;;;;;;;17.33;15.63;;;12.00;99.90;;;;;;5062517;28;20468;-71
2023/10/26 09:14:17;;;;;;;15.50;14.00;;;12.00;99.90;;;;;;5064174;28;20426;-70
2023/10/26 09:16:45;;;;;;;15.55;14.15;;;12.00;99.90;;;;;;5064583;28;20407;-72
2023/10/26 09:19:12;;;;;;;16.13;14.52;;;11.90;99.90;;;;;;5064186;28;20412;-71
2023/10/26 09:21:49;;;;;;;19.52;17.63;;;11.80;99.90;;;;;;5063036;28;20497;-72
2023/10/26 09:24:24;;;;;;;19.92;17.85;;;11.80;99.90;;;;;;5058583;28;20507;-71
2023/10/26 09:26:52;;;;;;;20.40;18.30;;;11.70;99.90;;;;;;5064091;28;20735;-71
2023/10/26 09:29:19;;;;;;;20.17;18.17;;;11.70;99.90;;;;;;5063577;28;20832;-71
2023/10/26 09:31:56;;;;;;;19.20;17.40;;;11.70;99.90;;;;;;5062245;28;20458;-70
2023/10/26 09:34:25;;;;;;;17.83;16.13;;;11.70;99.90;;;;;;5064897;28;20908;-71
2023/10/26 09:37:02;;;;;;;17.55;15.85;;;11.60;99.90;;;;;;5061047;28;20431;-71
2023/10/26 09:39:34;;;;;;;16.60;15.10;;;11.70;99.90;;;;;;5064149;28;20419;-71
2023/10/26 09:42:02;;;;;;;17.70;16.00;;;11.70;99.90;;;;;;5062984;28;20954;-73
2023/10/26 09:44:30;;;;;;;17.83;16.13;;;11.80;99.90;;;;;;5064105;28;20963;-71
2023/10/26 09:46:57;;;;;;;18.40;16.60;;;11.80;99.90;;;;;;5064105;28;20858;-72
2023/10/26 09:49:25;;;;;;;18.00;16.20;;;11.90;99.90;;;;;;5064425;28;20410;-72
2023/10/26 09:51:52;;;;;;;18.35;16.55;;;12.00;99.90;;;;;;5061653;28;20431;-71
2023/10/26 09:54:21;;;;;;;18.03;16.33;;;12.00;99.90;;;;;;5058742;28;20608;-73
2023/10/26 09:57:08;;;;;;;18.63;16.83;;;12.00;99.90;;;;;;5063725;28;20459;-72
2023/10/26 09:59:35;;;;;;;17.67;16.08;;;12.10;99.90;;;;;;5064311;28;20696;-72
2023/10/26 10:02:13;;;;;;;17.80;16.17;;;12.20;99.90;;;;;;5063465;28;20486;-72
2023/10/26 10:04:40;;;;;;;18.17;16.42;;;12.30;99.90;;;;;;5064168;28;20423;-72
2023/10/26 10:07:08;;;;;;;18.33;16.63;;;12.30;99.90;;;;;;5062884;28;20451;-71
2023/10/26 10:10:05;;;;;;;17.77;16.08;;;12.30;99.90;;;;;;5063825;28;20419;-72
2023/10/26 10:12:33;;;;;;;17.55;15.95;;;12.40;99.90;;;;;;5059348;28;20907;-72
2023/10/26 10:15:03;;;;;;;18.42;16.73;;;12.60;99.90;;;;;;5062623;28;20538;-72
2023/10/26 10:18:13;;;;;;;15.82;14.43;;;12.70;99.90;;;;;;5063908;28;20902;-72
2023/10/26 10:20:41;;;;;;;14.60;13.30;;;12.80;99.90;;;;;;5058474;28;20479;-72
2023/10/26 10:23:09;;;;;;;14.87;13.47;;;13.00;99.90;;;;;;5062911;28;20488;-72
2023/10/26 10:26:02;;;;;;;16.70;15.00;;;13.00;99.90;;;;;;5061767;28;20458;-73
2023/10/26 10:28:41;;;;;;;16.30;14.70;;;13.10;99.90;;;;;;5059927;28;20435;-72
2023/10/26 10:31:09;;;;;;;17.05;15.45;;;13.10;99.90;;;;;;5055190;28;20499;-72
2023/10/26 10:33:41;;;;;;;17.20;15.60;;;13.00;99.90;;;;;;5062689;28;20512;-72
2023/10/26 10:36:09;;;;;;;18.95;17.05;;;13.00;99.90;;;;;;5062035;28;20443;-72
2023/10/26 10:38:35;;;;;;;19.20;17.40;;;12.90;99.90;;;;;;5062628;28;20442;-71
2023/10/26 10:41:14;;;;;;;18.70;17.00;;;12.90;99.90;;;;;;5063048;28;20408;-72
2023/10/26 10:43:44;;;;;;;17.63;16.02;;;12.90;99.90;;;;;;5062875;28;20547;-72
2023/10/26 10:46:16;;;;;;;18.60;16.70;;;13.00;99.90;;;;;;5062762;28;20419;-71
2023/10/26 10:49:00;;;;;;;16.80;15.20;;;13.20;99.90;;;;;;5063292;28;20430;-71
2023/10/26 10:51:32;;;;;;;17.15;15.55;;;13.60;99.90;;;;;;5062026;28;20532;-71
2023/10/26 10:53:59;;;;;;;13.30;12.20;;;13.90;99.90;;;;;;5063812;28;20404;-72
2023/10/26 10:56:29;;;;;;;13.30;12.20;;;14.20;99.90;;;;;;5063520;28;20411;-74
2023/10/26 10:58:56;;;;;;;11.52;10.52;;;14.30;99.90;;;;;;5063497;28;20866;-71
2023/10/26 11:01:23;;;;;;;10.27;9.48;;;14.40;99.90;;;;;;5063047;28;20473;-71
2023/10/26 11:03:50;;;;;;;10.30;9.40;;;14.30;99.90;;;;;;5063890;28;20898;-73
2023/10/26 11:06:19;;;;;;;9.80;9.00;;;14.10;99.60;;;;;;5066160;28;20431;-71
2023/10/26 11:08:46;;;;;;;10.40;9.50;;;14.00;98.90;;;;;;5067144;28;20418;-72
2023/10/26 11:11:27;;;;;;;10.15;9.35;;;13.90;99.40;;;;;;5065745;28;20424;-72
2023/10/26 11:14:08;;;;;;;11.07;10.18;;;13.90;99.20;;;;;;5066468;28;20412;-71
2023/10/26 11:16:36;;;;;;;10.57;9.70;;;13.70;98.50;;;;;;5066824;28;20407;-72
2023/10/26 11:19:03;;;;;;;10.60;9.70;;;13.60;99.90;;;;;;5066086;28;20450;-72
2023/10/26 11:21:30;;;;;;;10.60;9.60;;;13.60;99.90;;;;;;5064490;28;20432;-72
2023/10/26 11:23:56;;;;;;;10.20;9.30;;;13.50;99.90;;;;;;5063384;28;20454;-72
2023/10/26 11:26:23;;;;;;;11.15;10.15;;;13.50;99.90;;;;;;5066236;28;20511;-71
2023/10/26 11:28:51;;;;;;;10.80;9.90;;;13.50;99.50;;;;;;5065447;28;20514;-73
2023/10/26 11:31:35;;;;;;;12.20;11.20;;;13.40;99.90;;;;;;5065866;28;20412;-71
2023/10/26 11:34:06;;;;;;;11.40;10.50;;;13.30;99.90;;;;;;5066523;28;20874;-71
2023/10/26 11:36:32;;;;;;;10.80;9.90;;;13.20;99.90;;;;;;5065277;28;20869;-71
2023/10/26 11:38:59;;;;;;;9.90;9.00;;;13.30;99.90;;;;;;5065734;28;20415;-71
2023/10/26 11:41:28;;;;;;;9.80;9.00;;;13.30;99.90;;;;;;5065905;28;20435;-72
2023/10/26 11:43:56;;;;;;;8.90;8.10;;;13.50;99.90;;;;;;5066141;28;20534;-71
2023/10/26 11:46:34;;;;;;;6.80;6.20;;;13.70;99.90;;;;;;5065456;28;20435;-71
2023/10/26 11:49:02;;;;;;;8.30;6.80;;;14.00;98.60;;;;;;5066385;28;20491;-71
2023/10/26 11:51:29;;;;;;;6.53;6.03;;;14.30;97.30;;;;;;5064367;28;20431;-72
2023/10/26 11:53:56;;;;;;;6.60;6.10;;;14.60;96.30;;;;;;5066178;28;20424;-70
2023/10/26 11:56:23;;;;;;;4.97;4.57;;;14.90;95.30;;;;;;5066027;28;20416;-70
2023/10/26 11:58:50;;;;;;;6.00;5.50;;;15.00;92.70;;;;;;5065751;28;20799;-71
2023/10/26 12:01:18;;;;;;;5.55;5.05;;;14.80;91.40;;;;;;5063624;28;20435;-70
2023/10/26 12:03:47;;;;;;;5.35;4.95;;;14.50;91.60;;;;;;5065896;28;20455;-73
2023/10/26 12:06:14;;;;;;;5.90;5.40;;;14.20;92.70;;;;;;5064795;28;20444;-71
2023/10/26 12:08:40;;;;;;;5.22;4.78;;;14.00;94.20;;;;;;5065496;28;20428;-71
2023/10/26 12:11:07;;;;;;;4.90;4.50;;;13.80;94.00;;;;;;5063702;28;20431;-71
2023/10/26 12:13:35;;;;;;;5.20;4.80;;;13.70;94.70;;;;;;5064855;28;20411;-72
2023/10/26 12:16:02;;;;;;;4.80;4.40;;;13.60;95.00;;;;;;5063084;28;20534;-72
2023/10/26 12:18:30;;;;;;;5.40;4.90;;;13.50;95.40;;;;;;5064965;28;20437;-72
2023/10/26 12:20:57;;;;;;;4.60;4.30;;;13.30;95.60;;;;;;5063563;28;20453;-71
2023/10/26 12:23:24;;;;;;;5.32;4.82;;;13.30;94.80;;;;;;5065056;28;20407;-73
2023/10/26 12:25:51;;;;;;;5.60;5.10;;;13.10;95.50;;;;;;5063463;28;20443;-72
2023/10/26 12:28:18;;;;;;;5.60;5.10;;;13.00;96.20;;;;;;5065221;28;20430;-71
2023/10/26 12:30:45;;;;;;;5.93;5.43;;;13.00;96.80;;;;;;5065141;28;20443;-71
2023/10/26 12:33:12;;;;;;;6.07;5.47;;;13.00;96.90;;;;;;5065291;28;20905;-71
2023/10/26 12:35:41;;;;;;;5.60;5.10;;;13.10;98.20;;;;;;5064216;28;20846;-71